首页
METAR-TAF:

METAR-TAF

机场 :

比利·畢曉普多倫多市機場

多伦多 City Centre, 安大略省, 加拿大

纬度: 43-38N, 经度: 079-24W, 海拔: 77米

当前天气观测

该预报发布于39分钟前的19:00 UTC
风速10节,风向西转西北,有时为18节阵风
温度 -2°C
湿度 46%
气压 1029 hPa
能見度: 14.5公里
多云层高于5000英尺

METAR: CYTZ 191900Z AUTO 29010G18KT 9SM BKN050 M02/M12 A3039 RMK SLP297

时间: 14:39 (19:39 UTC)

预报

该预报发布于6小时和1分钟前的13:38 UTC
预报有效从19日的 14点(UTC)到 20日的 14点(UTC)
风速12节,风向西转西北,有时为22节阵风
能見度: 10公里
多云层高于4000英尺
从 19日的 1500点(UTC)
风速12节,风向西转西北,有时为22节阵风
能見度: 10公里
多云层高于3000英尺
短暂存在
从 19日的 15点(UTC)到 19日的 19点(UTC)
能見度: 10公里
多云层高于2000英尺
小阵雪
从 19日的 1900点(UTC)
风速12节,风向西转西北,有时为22节阵风
能見度: 10公里
多云层高于3000英尺
从 20日的 0200点(UTC)
风速12节,风向西转西北
能見度: 10公里
散云层高于3000英尺

TAF: CYTZ 191338Z 1914/2014 30012G22KT P6SM BKN040 FM191500 30012G22KT P6SM BKN030 TEMPO 1915/1919 P6SM -SHSN BKN020 FM191900 29012G22KT P6SM BKN030 FM200200 29012KT P6SM SCT030 RMK FCST BASED ON AUTO OBS. NXT FCST BY 192000Z

超过4000个机场的气象观测和天气预报(METAR&TAF报告)。

可查询的气象台以黄色和红色小点在地图上表示。

将鼠标移到小点上方,可查看气象台名称。

然后点击查看天气观测和预报。

如需切换地图:点击带黑十字的绿色按钮放大地图;点击带横线的绿色按钮缩小地图;或者点击绿色箭头查看邻近地区的地图。


METAR-TAF: